Aeroporto :
LOGIN :

Iscrizione | Disclaimer

   EN    FR    IT 

 










Sommario :    VFR   VFR Marginale   IFR   IFR Intensivo   IFR Molto Intensivo
Visibilità : 
Base nubi : 
>= 8 km
>= 3000ft
5 / 8 km
1000 / 3000 ft
1500m / 5 km
500 / 1000 ft
800 / 1500m
200 / 500 ft
< 800m
< 200 ft
Simboli :   Temporali  Nebbia  Neve Forte  Precipitazioni Forti  Vento > 20 kt
SIGMETs :   Varie  Temporali  Ghiacco  Turbolenza  Onda orograficha  Ceneri Vulcaniche






- Altitudine del aeroporto : 1300 ft
- Codice IATA : LIG


LFBL - Limoges

ULTIMO METAR :
  • 221600Z AUTO 21009KT CAVOK 13/02 Q1031 NOSIG

METARs OBSOLETI :
  • 221530Z AUTO 19009KT CAVOK 14/03 Q1031 NOSIG
  • 221500Z AUTO 21007KT 190V260 CAVOK 14/03 Q1031 NOSIG
  • 221430Z AUTO 23007KT 180V290 CAVOK 13/03 Q1032 NOSIG
  • 221400Z AUTO 19009KT CAVOK 13/03 Q1031 NOSIG
  • 221330Z AUTO 19008KT 160V220 CAVOK 13/04 Q1031 NOSIG

TAF TAF LFBL
Valido dal 22 a 12 ore il 23 a 12 ore UTC


221100Z 2212/2312 VRB02KT CAVOK
TEMPO 2212/2220 SCT015
BECMG 2220/2222 OVC008
BECMG 2223/2301 4000 BR OVC004
PROB40
TEMPO 2301/2307 2000 OVC002
BECMG 2309/2311 20008KT 9999 NSW OVC006
ATIS : +33 5 55 48 40 37



MetMap, La meteo Aeronautica in un colpo d'occhio ! - Copyright ORBIFLY Dicembre 2007 - Disclaimer

ORBIFLY MET'MAP TEAM :

Programmazione e sviluppo : Alexandra Zaïnal
Concezione : Baudouin d'Aumeries
Aiuto per la programmazione : Marc-Olivier Méhu
Supporto tecnico e logistico : Manuel Goepfert
Aiuto per la traduzione : Arnaldo La Scala

Contatto : metmap@orbifly.com




FONTI E CREDITI :

   NOAA